Time;durP1;ratioP1;P1;durP2;ratioP2;P2;SDS_P1;SDS_P2;PMS_P1;PMS_P2;Temp;Humidity;BMP_temperature;BMP_pressure;BME280_temperature;BME280_humidity;BME280_pressure;Samples;Min_cycle;Max_cycle;Signal;HPM_P1;HPM_P2
2022/08/02 00:00:31;;;;;;;0.20;0.10;;;;;;;;;;4816050;29;20045;-83
2022/08/02 00:02:57;;;;;;;0.20;0.10;;;;;;;;;;4801215;29;20125;-83
2022/08/02 00:05:23;;;;;;;0.25;0.15;;;;;;;;;;4831287;29;20517;-84
2022/08/02 00:07:49;;;;;;;0.20;0.10;;;;;;;;;;4831044;29;20100;-82
2022/08/02 00:10:15;;;;;;;0.20;0.10;;;;;;;;;;4817552;29;20239;-83
2022/08/02 00:12:41;;;;;;;0.20;0.10;;;;;;;;;;4817374;29;20049;-83
2022/08/02 00:15:09;;;;;;;0.20;0.10;;;;;;;;;;4815308;29;20060;-83
2022/08/02 00:17:35;;;;;;;0.20;0.10;;;;;;;;;;4817848;29;20041;-83
2022/08/02 00:20:02;;;;;;;0.20;0.10;;;;;;;;;;4816904;29;20140;-82
2022/08/02 00:22:28;;;;;;;0.20;0.10;;;;;;;;;;4822359;29;20053;-83
2022/08/02 00:24:54;;;;;;;0.20;0.10;;;;;;;;;;4821278;29;20053;-82
2022/08/02 00:27:20;;;;;;;0.20;0.10;;;;;;;;;;4821545;29;20053;-82
2022/08/02 00:29:46;;;;;;;0.20;0.10;;;;;;;;;;4830977;29;20045;-81
2022/08/02 00:32:12;;;;;;;0.20;0.10;;;;;;;;;;4822189;29;20072;-83
2022/08/02 00:34:38;;;;;;;0.20;0.10;;;;;;;;;;4824778;29;20054;-83
2022/08/02 00:37:04;;;;;;;0.20;0.10;;;;;;;;;;4804968;29;20127;-82
2022/08/02 00:39:30;;;;;;;0.20;0.10;;;;;;;;;;4818334;29;20073;-83
2022/08/02 00:41:56;;;;;;;0.20;0.10;;;;;;;;;;4836962;29;20042;-83
2022/08/02 00:44:22;;;;;;;0.20;0.10;;;;;;;;;;4819237;29;20140;-82
2022/08/02 00:46:48;;;;;;;0.20;0.10;;;;;;;;;;4820272;29;20042;-81
2022/08/02 00:49:14;;;;;;;0.20;0.10;;;;;;;;;;4819276;29;20077;-83
2022/08/02 00:51:41;;;;;;;0.20;0.10;;;;;;;;;;4820550;29;20042;-83
2022/08/02 00:54:07;;;;;;;0.20;0.10;;;;;;;;;;4819850;29;20056;-83
2022/08/02 00:56:34;;;;;;;0.20;0.00;;;;;;;;;;4804012;29;21241;-83
2022/08/02 00:59:00;;;;;;;0.20;0.10;;;;;;;;;;4832348;29;20057;-82
2022/08/02 01:01:39;;;;;;;0.20;0.10;;;;;;;;;;4832108;29;20074;-83
2022/08/02 01:04:09;;;;;;;0.20;0.10;;;;;;;;;;4821570;29;20416;-83
2022/08/02 01:06:35;;;;;;;0.20;0.10;;;;;;;;;;4821293;29;20060;-83
2022/08/02 01:09:02;;;;;;;0.20;0.10;;;;;;;;;;4836349;29;20049;-83
2022/08/02 01:11:28;;;;;;;0.20;0.00;;;;;;;;;;4817187;29;20053;-81
2022/08/02 01:13:59;;;;;;;0.20;0.10;;;;;;;;;;4834852;29;20064;-83
2022/08/02 01:16:27;;;;;;;0.20;0.10;;;;;;;;;;4835468;29;20044;-83
2022/08/02 01:18:57;;;;;;;0.20;0.10;;;;;;;;;;4833813;29;21476;-83
2022/08/02 01:21:40;;;;;;;0.20;0.10;;;;;;;;;;4833987;29;20045;-83
2022/08/02 01:24:09;;;;;;;0.20;0.15;;;;;;;;;;4836497;29;20042;-83
2022/08/02 01:26:43;;;;;;;0.20;0.10;;;;;;;;;;4829459;29;20053;-82
2022/08/02 01:29:15;;;;;;;0.90;0.63;;;;;;;;;;4830106;29;20045;-82
2022/08/02 01:31:48;;;;;;;0.20;0.10;;;;;;;;;;4832544;29;20048;-83
2022/08/02 01:34:24;;;;;;;1.67;0.55;;;;;;;;;;4832677;29;20068;-83
2022/08/02 01:37:10;;;;;;;0.20;0.10;;;;;;;;;;4834685;29;20042;-84
2022/08/02 01:39:38;;;;;;;0.20;0.10;;;;;;;;;;4831687;29;20130;-83
2022/08/02 01:42:05;;;;;;;0.20;0.10;;;;;;;;;;4831077;29;20049;-83
2022/08/02 01:44:34;;;;;;;0.20;0.10;;;;;;;;;;4817509;29;20045;-83
2022/08/02 01:47:03;;;;;;;0.20;0.10;;;;;;;;;;4821340;29;20109;-83
2022/08/02 01:49:31;;;;;;;0.20;0.10;;;;;;;;;;4831832;29;20041;-83
2022/08/02 01:54:43;;;;;;;0.20;0.10;;;;;;;;;;4821496;29;20048;-83
2022/08/02 01:57:10;;;;;;;0.20;0.10;;;;;;;;;;4818576;29;20672;-83
2022/08/02 01:59:36;;;;;;;0.20;0.10;;;;;;;;;;4819193;29;20042;-83
2022/08/02 02:02:03;;;;;;;0.20;0.13;;;;;;;;;;4830918;29;20082;-84
2022/08/02 02:04:31;;;;;;;0.20;0.10;;;;;;;;;;4807447;29;20308;-82
2022/08/02 02:06:58;;;;;;;0.20;0.10;;;;;;;;;;4833240;29;20045;-84
2022/08/02 02:09:28;;;;;;;0.20;0.10;;;;;;;;;;4824888;29;20060;-84
2022/08/02 02:11:56;;;;;;;0.20;0.10;;;;;;;;;;4815009;29;20041;-83
2022/08/02 02:14:22;;;;;;;0.20;0.10;;;;;;;;;;4830447;29;20096;-83
2022/08/02 02:16:49;;;;;;;0.20;0.00;;;;;;;;;;4832049;29;20128;-84
2022/08/02 02:19:16;;;;;;;0.20;0.10;;;;;;;;;;4820656;29;20045;-84
2022/08/02 02:21:42;;;;;;;0.20;0.10;;;;;;;;;;4832723;29;20042;-83
2022/08/02 02:24:08;;;;;;;0.20;0.10;;;;;;;;;;4810931;29;20049;-83
2022/08/02 02:26:35;;;;;;;0.20;0.10;;;;;;;;;;4833518;29;20038;-84
2022/08/02 02:29:02;;;;;;;0.20;0.10;;;;;;;;;;4849379;29;20053;-84
2022/08/02 02:31:29;;;;;;;0.20;0.10;;;;;;;;;;4828111;29;20078;-83
2022/08/02 02:34:00;;;;;;;0.20;0.10;;;;;;;;;;4824114;29;20044;-84
2022/08/02 02:36:27;;;;;;;0.20;0.10;;;;;;;;;;4828253;29;20058;-84
2022/08/02 02:38:55;;;;;;;0.20;0.10;;;;;;;;;;4832528;29;20156;-84
2022/08/02 02:41:22;;;;;;;0.20;0.10;;;;;;;;;;4832981;29;20041;-84
2022/08/02 02:43:48;;;;;;;0.20;0.10;;;;;;;;;;4815210;29;20137;-83
2022/08/02 02:46:16;;;;;;;0.20;0.10;;;;;;;;;;4819681;29;20453;-83
2022/08/02 02:48:42;;;;;;;0.20;0.10;;;;;;;;;;4820599;29;20043;-83
2022/08/02 02:51:10;;;;;;;0.20;0.00;;;;;;;;;;4845963;29;20041;-83
2022/08/02 02:53:37;;;;;;;0.20;0.10;;;;;;;;;;4820185;29;20049;-84
2022/08/02 02:56:03;;;;;;;0.20;0.10;;;;;;;;;;4832648;29;20037;-83
2022/08/02 02:58:30;;;;;;;0.20;0.10;;;;;;;;;;4818531;29;20052;-84
2022/08/02 03:03:43;;;;;;;0.20;0.10;;;;;;;;;;4835224;29;20045;-83
2022/08/02 03:06:09;;;;;;;0.20;0.10;;;;;;;;;;4838127;29;20049;-83
2022/08/02 03:08:35;;;;;;;0.20;0.10;;;;;;;;;;4822771;29;20049;-83
2022/08/02 03:11:01;;;;;;;0.20;0.10;;;;;;;;;;4839110;29;20033;-83
2022/08/02 03:13:28;;;;;;;0.20;0.10;;;;;;;;;;4858806;24;20087;-86
2022/08/02 03:15:56;;;;;;;0.20;0.10;;;;;;;;;;4842999;29;20447;-88
2022/08/02 03:18:29;;;;;;;0.20;0.10;;;;;;;;;;4830600;29;20052;-88
2022/08/02 03:21:00;;;;;;;0.20;0.10;;;;;;;;;;4860565;29;20132;-87
2022/08/02 03:23:26;;;;;;;0.20;0.10;;;;;;;;;;4842136;29;20044;-87
2022/08/02 03:25:54;;;;;;;0.20;0.10;;;;;;;;;;4819180;29;20185;-87
2022/08/02 03:28:20;;;;;;;0.20;0.10;;;;;;;;;;4833121;29;20428;-87
2022/08/02 03:30:46;;;;;;;0.20;0.10;;;;;;;;;;4852194;29;20029;-86
2022/08/02 03:33:13;;;;;;;0.20;0.05;;;;;;;;;;4837319;29;20050;-88
2022/08/02 03:35:40;;;;;;;0.20;0.10;;;;;;;;;;4835313;29;20049;-87
2022/08/02 03:38:06;;;;;;;0.20;0.10;;;;;;;;;;4836801;29;20041;-87
2022/08/02 03:40:33;;;;;;;0.20;0.10;;;;;;;;;;4836017;29;20033;-87
2022/08/02 03:42:59;;;;;;;0.20;0.10;;;;;;;;;;4839059;29;20045;-87
2022/08/02 03:45:25;;;;;;;0.20;0.10;;;;;;;;;;4848854;29;20044;-87
2022/08/02 03:47:52;;;;;;;0.20;0.10;;;;;;;;;;4832569;29;20044;-87
2022/08/02 03:50:21;;;;;;;0.20;0.10;;;;;;;;;;4838447;29;20088;-87
2022/08/02 03:52:48;;;;;;;0.20;0.10;;;;;;;;;;4837567;29;20132;-87
2022/08/02 03:55:14;;;;;;;0.20;0.10;;;;;;;;;;4831918;29;20687;-86
2022/08/02 03:57:41;;;;;;;0.20;0.10;;;;;;;;;;4814147;29;20041;-86
2022/08/02 04:00:09;;;;;;;0.20;0.10;;;;;;;;;;4832890;29;20391;-86
2022/08/02 04:02:35;;;;;;;0.20;0.10;;;;;;;;;;4853424;29;20119;-87
2022/08/02 04:05:04;;;;;;;2.65;1.25;;;;;;;;;;4838746;29;20050;-86
2022/08/02 04:07:38;;;;;;;0.20;0.10;;;;;;;;;;4849910;29;20072;-89
2022/08/02 04:10:05;;;;;;;0.20;0.10;;;;;;;;;;4831547;29;20049;-86
2022/08/02 04:12:34;;;;;;;0.20;0.10;;;;;;;;;;4834222;29;20580;-88
2022/08/02 04:15:01;;;;;;;0.20;0.10;;;;;;;;;;4830046;29;20493;-84
2022/08/02 04:17:27;;;;;;;0.20;0.10;;;;;;;;;;4832326;29;20045;-86
2022/08/02 04:19:55;;;;;;;0.20;0.10;;;;;;;;;;4831876;29;20404;-86
2022/08/02 04:22:37;;;;;;;0.20;0.10;;;;;;;;;;4831816;29;20058;-87
2022/08/02 04:25:07;;;;;;;0.20;0.10;;;;;;;;;;4843131;29;20037;-86
2022/08/02 04:27:35;;;;;;;0.20;0.10;;;;;;;;;;4831342;29;20041;-85
2022/08/02 04:30:02;;;;;;;0.20;0.10;;;;;;;;;;4832709;29;20037;-84
2022/08/02 04:32:28;;;;;;;0.20;0.10;;;;;;;;;;4837909;29;20051;-86
2022/08/02 04:34:55;;;;;;;0.20;0.10;;;;;;;;;;4834343;29;20531;-86
2022/08/02 04:37:21;;;;;;;0.22;0.22;;;;;;;;;;4831593;29;20466;-86
2022/08/02 04:39:47;;;;;;;0.20;0.10;;;;;;;;;;4837826;29;20045;-86
2022/08/02 04:42:20;;;;;;;0.20;0.10;;;;;;;;;;4818795;29;20492;-86
2022/08/02 04:44:47;;;;;;;0.20;0.10;;;;;;;;;;4835598;29;20404;-86
2022/08/02 04:47:13;;;;;;;0.20;0.10;;;;;;;;;;4825284;29;20041;-86
2022/08/02 04:49:39;;;;;;;0.20;0.10;;;;;;;;;;4822098;29;20126;-85
2022/08/02 04:52:08;;;;;;;0.20;0.10;;;;;;;;;;4818456;29;20094;-86
2022/08/02 04:54:34;;;;;;;0.20;0.10;;;;;;;;;;4832030;29;20068;-85
2022/08/02 04:57:00;;;;;;;0.20;0.10;;;;;;;;;;4835752;29;20069;-86
2022/08/02 04:59:26;;;;;;;0.20;0.10;;;;;;;;;;4836487;29;20052;-86
2022/08/02 05:01:52;;;;;;;0.20;0.10;;;;;;;;;;4817747;29;20045;-85
2022/08/02 05:04:18;;;;;;;0.20;0.10;;;;;;;;;;4836371;29;20722;-86
2022/08/02 05:06:44;;;;;;;0.20;0.10;;;;;;;;;;4834912;29;20700;-87
2022/08/02 05:09:10;;;;;;;0.20;0.10;;;;;;;;;;4835542;29;20603;-85
2022/08/02 05:11:36;;;;;;;0.20;0.10;;;;;;;;;;4833968;29;20132;-86
2022/08/02 05:14:03;;;;;;;0.30;0.20;;;;;;;;;;4817575;29;20172;-83
2022/08/02 05:16:29;;;;;;;0.20;0.10;;;;;;;;;;4832534;29;20094;-85
2022/08/02 05:18:55;;;;;;;0.20;0.10;;;;;;;;;;4835568;29;20104;-86
2022/08/02 05:21:27;;;;;;;0.20;0.10;;;;;;;;;;4836271;29;20041;-87
2022/08/02 05:23:53;;;;;;;0.20;0.10;;;;;;;;;;4834498;29;20053;-86
2022/08/02 05:26:19;;;;;;;0.20;0.10;;;;;;;;;;4834403;29;20784;-86
2022/08/02 05:28:45;;;;;;;0.20;0.10;;;;;;;;;;4816706;29;20082;-85
2022/08/02 05:31:21;;;;;;;0.20;0.10;;;;;;;;;;4834015;29;20051;-85
2022/08/02 05:33:50;;;;;;;0.20;0.10;;;;;;;;;;4821242;29;20505;-85
2022/08/02 05:36:16;;;;;;;0.20;0.10;;;;;;;;;;4835511;29;21793;-86
2022/08/02 05:38:42;;;;;;;0.20;0.10;;;;;;;;;;4830889;29;20041;-86
2022/08/02 05:41:37;;;;;;;0.20;0.10;;;;;;;;;;4828893;29;20045;-86
2022/08/02 05:44:03;;;;;;;0.20;0.10;;;;;;;;;;4824974;29;20481;-86
2022/08/02 05:46:32;;;;;;;0.20;0.10;;;;;;;;;;4826445;29;20037;-87
2022/08/02 05:48:59;;;;;;;0.20;0.10;;;;;;;;;;4843886;29;20050;-85
2022/08/02 05:51:33;;;;;;;0.20;0.10;;;;;;;;;;4818396;29;20136;-85
2022/08/02 05:54:06;;;;;;;0.20;0.10;;;;;;;;;;4831991;29;20098;-86
2022/08/02 05:56:38;;;;;;;0.20;0.10;;;;;;;;;;4833484;29;20105;-87
2022/08/02 05:59:04;;;;;;;0.20;0.10;;;;;;;;;;4839556;29;20520;-84
2022/08/02 06:01:38;;;;;;;0.20;0.10;;;;;;;;;;4837695;29;20128;-87
2022/08/02 06:04:06;;;;;;;0.20;0.10;;;;;;;;;;4838117;29;20045;-86
2022/08/02 06:06:33;;;;;;;0.20;0.10;;;;;;;;;;4864555;29;20059;-86
2022/08/02 06:09:06;;;;;;;0.20;0.10;;;;;;;;;;4841110;29;20045;-86
2022/08/02 06:11:35;;;;;;;0.20;0.10;;;;;;;;;;4843782;29;20053;-86
2022/08/02 06:14:06;;;;;;;0.20;0.10;;;;;;;;;;4843496;29;20645;-88
2022/08/02 06:16:32;;;;;;;0.20;0.10;;;;;;;;;;4835169;29;20042;-85
2022/08/02 06:19:02;;;;;;;0.20;0.10;;;;;;;;;;4836071;29;20052;-86
2022/08/02 06:21:29;;;;;;;0.20;0.10;;;;;;;;;;4833505;29;20080;-86
2022/08/02 06:23:58;;;;;;;0.20;0.10;;;;;;;;;;4839904;29;20422;-86
2022/08/02 06:26:25;;;;;;;0.20;0.10;;;;;;;;;;4831616;29;20060;-85
2022/08/02 06:28:55;;;;;;;0.20;0.10;;;;;;;;;;4838527;29;20041;-86
2022/08/02 06:31:21;;;;;;;0.20;0.10;;;;;;;;;;4833256;29;20074;-85
2022/08/02 06:33:47;;;;;;;0.20;0.10;;;;;;;;;;4831148;29;20041;-85
2022/08/02 06:36:16;;;;;;;0.20;0.10;;;;;;;;;;4831216;29;20079;-87
2022/08/02 06:39:04;;;;;;;0.20;0.10;;;;;;;;;;4845784;29;20041;-87
2022/08/02 06:41:41;;;;;;;0.20;0.10;;;;;;;;;;4815918;29;20376;-87
2022/08/02 06:44:12;;;;;;;0.20;0.10;;;;;;;;;;4855028;29;20082;-84
2022/08/02 06:46:38;;;;;;;0.20;0.10;;;;;;;;;;4835319;29;20132;-85
2022/08/02 06:49:09;;;;;;;0.20;0.10;;;;;;;;;;4845088;29;20460;-85
2022/08/02 06:51:35;;;;;;;0.20;0.10;;;;;;;;;;4851206;29;20080;-84
2022/08/02 06:54:20;;;;;;;0.20;0.10;;;;;;;;;;4849852;29;20136;-88
2022/08/02 06:56:52;;;;;;;0.20;0.10;;;;;;;;;;4861009;29;20501;-86
2022/08/02 06:59:29;;;;;;;0.20;0.10;;;;;;;;;;4856072;29;20516;-87
2022/08/02 07:02:01;;;;;;;0.20;0.10;;;;;;;;;;4816621;29;20040;-88
2022/08/02 07:04:35;;;;;;;0.20;0.10;;;;;;;;;;4820231;29;20045;-86
2022/08/02 07:07:07;;;;;;;0.20;0.10;;;;;;;;;;4861452;29;20152;-87
2022/08/02 07:09:33;;;;;;;0.20;0.10;;;;;;;;;;4847029;29;20037;-85
2022/08/02 07:11:59;;;;;;;0.20;0.10;;;;;;;;;;4853821;29;20045;-86
2022/08/02 07:14:32;;;;;;;0.20;0.10;;;;;;;;;;4831107;29;21989;-87
2022/08/02 07:17:01;;;;;;;0.20;0.10;;;;;;;;;;4849597;29;20040;-86
2022/08/02 07:19:27;;;;;;;0.20;0.10;;;;;;;;;;4840900;29;20049;-87
2022/08/02 07:21:56;;;;;;;0.20;0.10;;;;;;;;;;4836500;29;20115;-86
2022/08/02 07:24:22;;;;;;;0.20;0.10;;;;;;;;;;4849659;29;20049;-86
2022/08/02 07:26:48;;;;;;;0.20;0.10;;;;;;;;;;4837871;29;20044;-85
2022/08/02 07:29:14;;;;;;;0.20;0.10;;;;;;;;;;4835610;29;20052;-86
2022/08/02 07:31:42;;;;;;;0.20;0.10;;;;;;;;;;4823742;29;20053;-87
2022/08/02 07:34:08;;;;;;;0.20;0.05;;;;;;;;;;4815240;29;20496;-84
2022/08/02 07:36:42;;;;;;;0.20;0.00;;;;;;;;;;4831203;29;20045;-87
2022/08/02 07:39:11;;;;;;;0.20;0.10;;;;;;;;;;4836570;29;20052;-88
2022/08/02 07:41:53;;;;;;;0.20;0.10;;;;;;;;;;4836666;29;20045;-87
2022/08/02 07:44:20;;;;;;;0.20;0.10;;;;;;;;;;4830374;29;20057;-85
2022/08/02 07:46:47;;;;;;;0.20;0.10;;;;;;;;;;4830841;29;20161;-87
2022/08/02 07:49:17;;;;;;;0.20;0.10;;;;;;;;;;4834198;29;20102;-86
2022/08/02 07:51:46;;;;;;;0.20;0.10;;;;;;;;;;4846399;29;20107;-86
2022/08/02 07:54:12;;;;;;;0.20;0.10;;;;;;;;;;4832651;29;20513;-86
2022/08/02 07:56:39;;;;;;;0.20;0.10;;;;;;;;;;4835448;29;20073;-87
2022/08/02 07:59:05;;;;;;;0.20;0.10;;;;;;;;;;4847911;29;20041;-87
2022/08/02 08:01:31;;;;;;;0.20;0.10;;;;;;;;;;4841025;29;20053;-88
2022/08/02 08:03:57;;;;;;;0.20;0.10;;;;;;;;;;4830643;29;20045;-87
2022/08/02 08:06:23;;;;;;;0.20;0.10;;;;;;;;;;4817833;29;20050;-87
2022/08/02 08:08:49;;;;;;;0.20;0.10;;;;;;;;;;4817655;29;20094;-87
2022/08/02 08:11:15;;;;;;;0.20;0.10;;;;;;;;;;4835177;29;20132;-85
2022/08/02 08:13:46;;;;;;;0.20;0.10;;;;;;;;;;4833681;29;20049;-85
2022/08/02 08:16:13;;;;;;;0.20;0.10;;;;;;;;;;4834863;29;20165;-85
2022/08/02 08:18:39;;;;;;;0.20;0.10;;;;;;;;;;4838495;29;20133;-88
2022/08/02 08:21:14;;;;;;;0.20;0.10;;;;;;;;;;4831153;29;20045;-88
2022/08/02 08:23:40;;;;;;;0.20;0.10;;;;;;;;;;4836967;29;20041;-87
2022/08/02 08:26:06;;;;;;;0.20;0.10;;;;;;;;;;4833092;29;20048;-86
2022/08/02 08:28:35;;;;;;;0.20;0.10;;;;;;;;;;4841221;29;20075;-87
2022/08/02 08:31:05;;;;;;;0.20;0.10;;;;;;;;;;4818940;29;20059;-86
2022/08/02 08:33:32;;;;;;;0.20;0.10;;;;;;;;;;4836365;29;20690;-85
2022/08/02 08:36:07;;;;;;;0.20;0.10;;;;;;;;;;4837116;29;20091;-86
2022/08/02 08:38:36;;;;;;;0.20;0.10;;;;;;;;;;4822696;29;20132;-85
2022/08/02 08:41:05;;;;;;;0.20;0.10;;;;;;;;;;4852446;29;20049;-87
2022/08/02 08:43:31;;;;;;;0.20;0.10;;;;;;;;;;4843073;29;20623;-88
2022/08/02 08:46:00;;;;;;;0.20;0.10;;;;;;;;;;4841003;29;20044;-87
2022/08/02 08:48:27;;;;;;;0.20;0.10;;;;;;;;;;4825813;29;20474;-84
2022/08/02 08:50:55;;;;;;;0.20;0.10;;;;;;;;;;4843309;29;20409;-86
2022/08/02 08:53:58;;;;;;;0.20;0.10;;;;;;;;;;4841124;29;20052;-87
2022/08/02 08:56:38;;;;;;;0.20;0.10;;;;;;;;;;4856422;29;20124;-86
2022/08/02 09:02:21;;;;;;;0.20;0.10;;;;;;;;;;4789987;29;20080;-88
2022/08/02 09:05:24;;;;;;;0.20;0.10;;;;;;;;;;4845808;29;20053;-86
2022/08/02 09:07:55;;;;;;;0.20;0.10;;;;;;;;;;4769507;29;20695;-87
2022/08/02 09:10:31;;;;;;;0.20;0.10;;;;;;;;;;4748951;29;20157;-90
2022/08/02 09:13:16;;;;;;;0.20;0.10;;;;;;;;;;4794235;23;20081;-88
2022/08/02 09:15:47;;;;;;;0.20;0.10;;;;;;;;;;4824915;29;20469;-86
2022/08/02 09:18:13;;;;;;;0.20;0.10;;;;;;;;;;4824738;29;20617;-88
2022/08/02 09:20:53;;;;;;;0.20;0.10;;;;;;;;;;4822387;29;20128;-88
2022/08/02 09:23:45;;;;;;;;;;;;;;;;;;;;;
2022/08/02 09:26:29;;;;;;;0.20;0.10;;;;;;;;;;4826403;29;20049;-90
2022/08/02 09:29:04;;;;;;;0.20;0.10;;;;;;;;;;4803774;29;20382;-86
2022/08/02 09:31:36;;;;;;;0.20;0.10;;;;;;;;;;4811677;29;20092;-83
2022/08/02 09:34:02;;;;;;;0.20;0.10;;;;;;;;;;4806430;29;20543;-87
2022/08/02 09:36:36;;;;;;;0.20;0.10;;;;;;;;;;4784173;29;20042;-85
2022/08/02 09:39:06;;;;;;;0.20;0.10;;;;;;;;;;4819016;29;20046;-87
2022/08/02 09:41:39;;;;;;;0.20;0.10;;;;;;;;;;4784128;29;20061;-87
2022/08/02 09:44:10;;;;;;;0.20;0.10;;;;;;;;;;4822046;29;20037;-88
2022/08/02 09:46:43;;;;;;;0.20;0.10;;;;;;;;;;4798567;29;20046;-87
2022/08/02 09:49:18;;;;;;;0.20;0.10;;;;;;;;;;4814559;29;20796;-85
2022/08/02 09:51:47;;;;;;;0.20;0.05;;;;;;;;;;4806277;29;20045;-85
2022/08/02 09:54:20;;;;;;;0.20;0.10;;;;;;;;;;4821124;29;20050;-84
2022/08/02 09:56:48;;;;;;;0.20;0.10;;;;;;;;;;4806172;29;20086;-84
2022/08/02 09:59:15;;;;;;;0.20;0.10;;;;;;;;;;4805647;29;20074;-84
2022/08/02 10:01:45;;;;;;;0.20;0.10;;;;;;;;;;4816598;29;20053;-87
2022/08/02 10:04:21;;;;;;;0.20;0.10;;;;;;;;;;4800693;29;20052;-89
2022/08/02 10:06:50;;;;;;;0.20;0.10;;;;;;;;;;4815895;29;20052;-85
2022/08/02 10:09:19;;;;;;;0.20;0.10;;;;;;;;;;4803412;29;20558;-86
2022/08/02 10:11:46;;;;;;;0.20;0.10;;;;;;;;;;4819731;29;20467;-86
2022/08/02 10:14:12;;;;;;;0.20;0.10;;;;;;;;;;4799037;29;20045;-87
2022/08/02 10:16:42;;;;;;;0.20;0.10;;;;;;;;;;4813691;29;20046;-84
2022/08/02 10:19:09;;;;;;;0.22;0.10;;;;;;;;;;4818112;29;20096;-85
2022/08/02 10:21:54;;;;;;;0.20;0.10;;;;;;;;;;4800521;29;20038;-84
2022/08/02 10:24:25;;;;;;;0.20;0.10;;;;;;;;;;4796508;29;20073;-85
2022/08/02 10:26:51;;;;;;;0.20;0.10;;;;;;;;;;4805628;29;20085;-83
2022/08/02 10:29:19;;;;;;;0.20;0.10;;;;;;;;;;4812688;29;20140;-85
2022/08/02 10:31:53;;;;;;;0.20;0.10;;;;;;;;;;4811304;29;20397;-84
2022/08/02 10:34:22;;;;;;;0.20;0.10;;;;;;;;;;4827349;29;20065;-86
2022/08/02 10:36:55;;;;;;;0.60;0.40;;;;;;;;;;4801882;29;20045;-84
2022/08/02 10:39:27;;;;;;;0.20;0.10;;;;;;;;;;4834326;29;20125;-87
2022/08/02 10:41:53;;;;;;;0.20;0.10;;;;;;;;;;4784463;29;20054;-87
2022/08/02 10:51:07;;;;;;;0.20;0.10;;;;;;;;;;4841617;29;20036;-86
2022/08/02 10:53:35;;;;;;;0.20;0.10;;;;;;;;;;4801155;29;20070;-86
2022/08/02 10:56:03;;;;;;;0.20;0.10;;;;;;;;;;4802382;29;20058;-84
2022/08/02 10:58:33;;;;;;;0.20;0.10;;;;;;;;;;4815951;29;20493;-86
2022/08/02 11:01:20;;;;;;;0.28;0.20;;;;;;;;;;4803897;29;20449;-85
2022/08/02 11:03:46;;;;;;;0.20;0.10;;;;;;;;;;4831665;29;20072;-86
2022/08/02 11:06:13;;;;;;;0.38;0.38;;;;;;;;;;4806009;29;20110;-86
2022/08/02 11:08:45;;;;;;;0.20;0.10;;;;;;;;;;4815045;29;20137;-90
2022/08/02 11:11:14;;;;;;;0.20;0.20;;;;;;;;;;4805900;29;20420;-86
2022/08/02 11:14:19;;;;;;;0.20;0.10;;;;;;;;;;4811362;29;20385;-89
2022/08/02 11:17:05;;;;;;;0.20;0.10;;;;;;;;;;4756449;29;20134;-88
2022/08/02 11:19:33;;;;;;;0.20;0.10;;;;;;;;;;4781484;29;20807;-86
2022/08/02 11:22:18;;;;;;;0.20;0.20;;;;;;;;;;4806577;29;20052;-87
2022/08/02 11:24:46;;;;;;;0.20;0.10;;;;;;;;;;4815983;29;20070;-87
2022/08/02 11:27:19;;;;;;;0.20;0.20;;;;;;;;;;4831481;29;20041;-84
2022/08/02 11:29:47;;;;;;;0.20;0.10;;;;;;;;;;4805716;29;20045;-86
2022/08/02 11:32:23;;;;;;;10.65;0.30;;;;;;;;;;4813569;29;20421;-88
2022/08/02 11:34:50;;;;;;;0.20;0.10;;;;;;;;;;4818111;29;20042;-86
2022/08/02 11:37:40;;;;;;;0.20;0.20;;;;;;;;;;4796923;29;20052;-83
2022/08/02 11:40:08;;;;;;;0.20;0.10;;;;;;;;;;4830537;29;20046;-83
2022/08/02 11:42:39;;;;;;;0.20;0.10;;;;;;;;;;4817599;29;20049;-86
2022/08/02 11:45:06;;;;;;;0.25;0.13;;;;;;;;;;4795856;29;20061;-84
2022/08/02 11:47:32;;;;;;;0.30;0.30;;;;;;;;;;4812559;29;20409;-86
2022/08/02 11:50:09;;;;;;;0.20;0.10;;;;;;;;;;4816808;29;20082;-85
2022/08/02 11:52:38;;;;;;;0.20;0.10;;;;;;;;;;4803129;29;20854;-85
2022/08/02 11:55:11;;;;;;;0.20;0.10;;;;;;;;;;4809355;29;20048;-85
2022/08/02 11:57:38;;;;;;;0.20;0.10;;;;;;;;;;4821282;29;20052;-85
2022/08/02 12:00:05;;;;;;;0.20;0.10;;;;;;;;;;4833130;29;20523;-82
2022/08/02 12:02:39;;;;;;;0.20;0.10;;;;;;;;;;4805692;29;20056;-86
2022/08/02 12:05:08;;;;;;;0.20;0.10;;;;;;;;;;4831889;29;20050;-86
2022/08/02 12:07:36;;;;;;;0.20;0.10;;;;;;;;;;4820405;29;20577;-85
2022/08/02 12:10:07;;;;;;;0.20;0.10;;;;;;;;;;4835418;29;20198;-85
2022/08/02 12:12:43;;;;;;;0.20;0.10;;;;;;;;;;4817234;29;20162;-87
2022/08/02 12:15:09;;;;;;;0.50;0.43;;;;;;;;;;4816102;29;20042;-84
2022/08/02 12:20:34;;;;;;;0.20;0.10;;;;;;;;;;4814780;29;20050;-86
2022/08/02 12:23:02;;;;;;;0.20;0.10;;;;;;;;;;4800293;29;20038;-85
2022/08/02 12:25:30;;;;;;;0.85;0.20;;;;;;;;;;4814848;29;20038;-84
2022/08/02 12:28:32;;;;;;;0.20;0.20;;;;;;;;;;4817941;29;20045;-86
2022/08/02 12:30:59;;;;;;;0.20;0.10;;;;;;;;;;4724388;30;20086;-86
2022/08/02 12:33:28;;;;;;;0.20;0.10;;;;;;;;;;4808846;29;20054;-83
2022/08/02 12:35:54;;;;;;;0.20;0.10;;;;;;;;;;4814055;29;20106;-84
2022/08/02 12:38:32;;;;;;;0.20;0.10;;;;;;;;;;4792540;29;20045;-89
2022/08/02 12:41:11;;;;;;;0.30;0.20;;;;;;;;;;4827027;29;20077;-86
2022/08/02 12:43:42;;;;;;;0.20;0.10;;;;;;;;;;4802183;29;20164;-84
2022/08/02 12:46:15;;;;;;;0.20;0.10;;;;;;;;;;4815796;29;20144;-84
2022/08/02 12:48:41;;;;;;;0.20;0.10;;;;;;;;;;4816920;29;20198;-85
2022/08/02 12:51:20;;;;;;;0.20;0.10;;;;;;;;;;4793906;29;20459;-85
2022/08/02 12:53:47;;;;;;;0.20;0.10;;;;;;;;;;4797477;29;20141;-84
2022/08/02 12:56:16;;;;;;;0.20;0.10;;;;;;;;;;4810552;29;20094;-84
2022/08/02 12:58:48;;;;;;;0.20;0.13;;;;;;;;;;4795435;29;20154;-84
2022/08/02 13:01:20;;;;;;;0.43;0.10;;;;;;;;;;4797971;29;20050;-84
2022/08/02 13:03:47;;;;;;;0.20;0.10;;;;;;;;;;4808130;29;20049;-83
2022/08/02 13:06:13;;;;;;;0.20;0.10;;;;;;;;;;4797600;29;20106;-83
2022/08/02 13:08:42;;;;;;;0.32;0.20;;;;;;;;;;4807046;29;20042;-81
2022/08/02 13:11:08;;;;;;;0.20;0.20;;;;;;;;;;4794800;29;20054;-84
2022/08/02 13:13:34;;;;;;;0.20;0.10;;;;;;;;;;4793181;29;20054;-84
2022/08/02 13:16:10;;;;;;;;;;;;;;;;;;;;;
2022/08/02 13:18:48;;;;;;;0.20;0.10;;;;;;;;;;4814489;29;20042;-82
2022/08/02 13:21:53;;;;;;;;;;;;;;;;;;;;;
2022/08/02 13:27:39;;;;;;;;;;;;;;;;;;;;;
2022/08/02 13:30:37;;;;;;;;;;;;;;;;;;;;;
2022/08/02 13:36:35;;;;;;;0.20;0.10;;;;;;;;;;4812156;29;20310;-85
2022/08/02 13:39:49;;;;;;;0.20;0.10;;;;;;;;;;4813627;29;20413;-83
2022/08/02 13:42:22;;;;;;;0.20;0.10;;;;;;;;;;4818814;29;20151;-85
2022/08/02 13:45:27;;;;;;;;;;;;;;;;;;;;;
2022/08/02 13:48:27;;;;;;;;;;;;;;;;;;;;;
2022/08/02 13:50:53;;;;;;;0.20;0.10;;;;;;;;;;4814744;29;20061;-86
2022/08/02 13:53:20;;;;;;;0.28;0.20;;;;;;;;;;4803402;29;20046;-85
2022/08/02 13:55:46;;;;;;;0.20;0.10;;;;;;;;;;4800869;29;20088;-82
2022/08/02 13:58:17;;;;;;;0.63;0.52;;;;;;;;;;4817561;29;20038;-84
2022/08/02 14:03:59;;;;;;;;;;;;;;;;;;;;;
2022/08/02 14:06:51;;;;;;;0.20;0.10;;;;;;;;;;4819973;29;20046;-84
2022/08/02 14:09:31;;;;;;;0.20;0.20;;;;;;;;;;4826134;29;20434;-85
2022/08/02 14:12:23;;;;;;;0.20;0.10;;;;;;;;;;4834612;29;20041;-89
2022/08/02 14:15:02;;;;;;;;;;;;;;;;;;;;;
2022/08/02 14:24:35;;;;;;;0.20;0.10;;;;;;;;;;4801783;29;20055;-85
2022/08/02 14:27:30;;;;;;;0.20;0.10;;;;;;;;;;4816198;29;20460;-84
2022/08/02 14:30:36;;;;;;;0.20;0.10;;;;;;;;;;4816465;29;20053;-88
2022/08/02 14:33:07;;;;;;;0.20;0.10;;;;;;;;;;4819578;29;20042;-87
2022/08/02 14:35:39;;;;;;;0.20;0.10;;;;;;;;;;4799812;29;20486;-85
2022/08/02 14:38:36;;;;;;;0.20;0.10;;;;;;;;;;4802271;29;20046;-86
2022/08/02 14:40:59;;;;;;;0.20;0.10;;;;;;;;;;4800557;29;20050;-87
2022/08/02 14:46:46;;;;;;;0.20;0.10;;;;;;;;;;4810218;29;20057;-87
2022/08/02 14:52:04;;;;;;;0.20;0.10;;;;;;;;;;4799951;29;20141;-86
2022/08/02 14:54:50;;;;;;;0.20;0.10;;;;;;;;;;4813091;29;20042;-87
2022/08/02 15:04:01;;;;;;;;;;;;;;;;;;;;;
2022/08/02 15:07:13;;;;;;;;;;;;;;;;;;;;;
2022/08/02 15:10:15;;;;;;;;;;;;;;;;;;;;;
2022/08/02 15:26:03;;;;;;;;;;;;;;;;;;;;;
2022/08/02 15:28:39;;;;;;;0.22;0.22;;;;;;;;;;4844388;29;20052;-84
2022/08/02 15:31:28;;;;;;;0.20;0.10;;;;;;;;;;4839948;29;20059;-83
2022/08/02 15:34:46;;;;;;;;;;;;;;;;;;;;;
2022/08/02 15:37:46;;;;;;;0.20;0.10;;;;;;;;;;4824276;29;20080;-82
2022/08/02 15:40:25;;;;;;;;;;;;;;;;;;;;;
2022/08/02 15:49:19;;;;;;;0.30;0.30;;;;;;;;;;4762708;29;20063;-83
2022/08/02 15:51:48;;;;;;;0.20;0.10;;;;;;;;;;4829864;29;20057;-82
2022/08/02 15:54:16;;;;;;;0.20;0.10;;;;;;;;;;4814468;29;20088;-82
2022/08/02 16:02:46;;;;;;;0.20;0.10;;;;;;;;;;4818139;29;20137;-84
2022/08/02 16:05:13;;;;;;;0.20;0.10;;;;;;;;;;4814364;29;20046;-85
2022/08/02 16:07:39;;;;;;;0.20;0.10;;;;;;;;;;4831673;29;20124;-81
2022/08/02 16:10:10;;;;;;;0.20;0.10;;;;;;;;;;4797591;29;20049;-84
2022/08/02 16:12:36;;;;;;;0.20;0.10;;;;;;;;;;4808569;29;20081;-83
2022/08/02 16:15:11;;;;;;;0.20;0.10;;;;;;;;;;4828671;29;20045;-83
2022/08/02 16:17:43;;;;;;;0.20;0.10;;;;;;;;;;4814280;29;20046;-83
2022/08/02 16:20:09;;;;;;;0.20;0.10;;;;;;;;;;4828336;29;20057;-82
2022/08/02 16:22:38;;;;;;;0.35;0.35;;;;;;;;;;4842647;29;20053;-86
2022/08/02 16:25:13;;;;;;;0.30;0.28;;;;;;;;;;4794133;29;20636;-82
2022/08/02 16:27:42;;;;;;;0.20;0.10;;;;;;;;;;4848405;29;20041;-83
2022/08/02 16:30:11;;;;;;;0.20;0.10;;;;;;;;;;4816413;29;20045;-84
2022/08/02 16:32:39;;;;;;;0.20;0.10;;;;;;;;;;4813601;29;20037;-83
2022/08/02 16:35:06;;;;;;;0.20;0.15;;;;;;;;;;4836863;29;20077;-85